Time;durP1;ratioP1;P1;durP2;ratioP2;P2;SDS_P1;SDS_P2;PMS_P1;PMS_P2;Temp;Humidity;BMP_temperature;BMP_pressure;BME280_temperature;BME280_humidity;BME280_pressure;Samples;Min_cycle;Max_cycle;Signal;HPM_P1;HPM_P2
2023/08/14 00:01:43;;;;;;;6.72;4.35;;;24.80;99.90;;;;;;5055368;28;20300;-76
2023/08/14 00:04:12;;;;;;;5.05;4.55;;;24.70;99.90;;;;;;5064744;28;20249;-76
2023/08/14 00:06:38;;;;;;;4.43;4.03;;;24.70;99.90;;;;;;5052811;28;20701;-76
2023/08/14 00:09:05;;;;;;;8.55;4.75;;;24.60;99.90;;;;;;5052571;28;20242;-77
2023/08/14 00:11:32;;;;;;;5.82;4.65;;;24.70;99.90;;;;;;5052574;28;20594;-77
2023/08/14 00:13:59;;;;;;;4.80;4.20;;;24.60;99.90;;;;;;5052212;28;20245;-76
2023/08/14 00:16:27;;;;;;;5.28;4.78;;;24.60;99.90;;;;;;5053109;28;20206;-77
2023/08/14 00:18:54;;;;;;;5.93;4.25;;;24.70;99.90;;;;;;5052185;28;20937;-78
2023/08/14 00:21:23;;;;;;;4.78;3.85;;;24.60;99.90;;;;;;5052585;28;20751;-78
2023/08/14 00:23:51;;;;;;;6.30;4.25;;;24.70;99.90;;;;;;5051829;28;20564;-77
2023/08/14 00:26:18;;;;;;;7.18;3.60;;;24.60;99.90;;;;;;5052447;28;20674;-76
2023/08/14 00:28:45;;;;;;;9.27;4.30;;;24.60;99.90;;;;;;5052378;28;20217;-76
2023/08/14 00:31:12;;;;;;;4.47;4.07;;;24.70;99.90;;;;;;5052655;28;20211;-77
2023/08/14 00:33:39;;;;;;;4.88;4.03;;;24.70;99.90;;;;;;5052383;28;20764;-73
2023/08/14 00:36:06;;;;;;;6.22;4.55;;;24.70;99.90;;;;;;5051908;28;20751;-73
2023/08/14 00:38:35;;;;;;;4.68;4.18;;;24.80;99.90;;;;;;5052246;28;20211;-74
2023/08/14 00:41:02;;;;;;;6.78;4.03;;;24.70;99.90;;;;;;5051905;28;20290;-73
2023/08/14 00:43:28;;;;;;;5.75;4.57;;;24.60;99.90;;;;;;5051969;28;20674;-73
2023/08/14 00:45:56;;;;;;;5.93;4.22;;;24.60;99.90;;;;;;5051918;28;20239;-74
2023/08/14 00:48:24;;;;;;;5.28;4.15;;;24.70;99.90;;;;;;5051938;28;20207;-73
2023/08/14 00:50:52;;;;;;;7.43;5.05;;;24.80;99.90;;;;;;5051565;28;20249;-78
2023/08/14 00:53:19;;;;;;;6.03;4.80;;;24.70;99.90;;;;;;5049772;28;20266;-76
2023/08/14 00:55:48;;;;;;;6.82;4.85;;;24.70;99.90;;;;;;5052106;28;20238;-77
2023/08/14 00:58:15;;;;;;;6.30;4.80;;;24.70;99.90;;;;;;5052026;28;20245;-77
2023/08/14 01:00:44;;;;;;;5.55;4.28;;;24.60;99.90;;;;;;5051445;28;20250;-77
2023/08/14 01:03:11;;;;;;;7.22;4.60;;;24.60;99.90;;;;;;5051480;28;20234;-77
2023/08/14 01:05:38;;;;;;;7.88;5.18;;;24.60;99.90;;;;;;5052236;28;20241;-77
2023/08/14 01:08:05;;;;;;;7.03;5.30;;;24.50;99.90;;;;;;5051511;28;20214;-76
2023/08/14 01:10:46;;;;;;;5.53;4.90;;;24.50;99.90;;;;;;5052310;28;20644;-76
2023/08/14 01:13:22;;;;;;;5.35;4.85;;;24.60;99.90;;;;;;5051615;28;20288;-76
2023/08/14 01:15:54;;;;;;;12.93;4.93;;;24.50;99.90;;;;;;5051062;28;20246;-76
2023/08/14 01:18:22;;;;;;;6.32;4.53;;;24.50;99.90;;;;;;5051691;28;20243;-77
2023/08/14 01:20:59;;;;;;;8.68;5.25;;;24.60;99.90;;;;;;5051235;28;20234;-76
2023/08/14 01:23:34;;;;;;;5.53;5.03;;;24.60;99.90;;;;;;5051215;28;20246;-76
2023/08/14 01:26:03;;;;;;;5.25;4.35;;;24.60;99.90;;;;;;5050995;28;20655;-76
2023/08/14 01:28:30;;;;;;;4.35;4.03;;;24.70;99.90;;;;;;5051791;28;20250;-77
2023/08/14 01:30:57;;;;;;;6.43;4.93;;;24.60;99.90;;;;;;5051137;28;20239;-74
2023/08/14 01:33:24;;;;;;;4.80;4.28;;;24.80;99.90;;;;;;5051260;28;20238;-74
2023/08/14 01:35:57;;;;;;;5.47;4.57;;;24.90;99.90;;;;;;5050876;28;20230;-74
2023/08/14 01:38:32;;;;;;;4.80;4.20;;;24.80;99.90;;;;;;5050974;28;20242;-73
2023/08/14 01:41:08;;;;;;;7.00;4.40;;;24.90;99.90;;;;;;5050584;28;20245;-75
2023/08/14 01:43:39;;;;;;;6.85;4.75;;;24.90;99.90;;;;;;5051315;28;20246;-75
2023/08/14 01:46:09;;;;;;;4.80;4.40;;;24.90;99.90;;;;;;5050525;28;20234;-76
2023/08/14 01:48:37;;;;;;;4.55;4.15;;;24.90;99.90;;;;;;5051036;28;20238;-77
2023/08/14 01:51:05;;;;;;;6.85;4.70;;;24.80;99.90;;;;;;5050098;28;20261;-76
2023/08/14 01:53:34;;;;;;;4.60;4.00;;;24.90;99.90;;;;;;5050937;28;20270;-76
2023/08/14 01:56:01;;;;;;;8.10;4.35;;;24.80;99.90;;;;;;5050602;28;20245;-77
2023/08/14 01:58:29;;;;;;;7.53;4.68;;;24.90;99.90;;;;;;5051072;28;20207;-77
2023/08/14 02:00:56;;;;;;;6.10;4.18;;;25.00;99.90;;;;;;5050416;28;20238;-77
2023/08/14 02:03:25;;;;;;;5.72;4.22;;;25.00;99.90;;;;;;5050568;28;20238;-77
2023/08/14 02:05:52;;;;;;;5.70;4.57;;;24.90;99.90;;;;;;5050131;28;20626;-75
2023/08/14 02:08:19;;;;;;;5.07;4.68;;;24.90;99.90;;;;;;5050431;28;20231;-81
2023/08/14 02:10:47;;;;;;;6.90;4.63;;;25.00;99.90;;;;;;5050721;28;20256;-77
2023/08/14 02:13:14;;;;;;;6.60;4.85;;;25.10;99.90;;;;;;5050094;28;20247;-79
2023/08/14 02:15:45;;;;;;;4.05;3.65;;;25.00;99.90;;;;;;5050983;28;20242;-80
2023/08/14 02:18:12;;;;;;;4.38;3.63;;;25.00;99.90;;;;;;5050585;28;20242;-80
2023/08/14 02:20:46;;;;;;;4.43;4.03;;;25.00;99.90;;;;;;5050890;28;20211;-79
2023/08/14 02:23:13;;;;;;;6.28;4.43;;;25.00;99.90;;;;;;5051016;28;20293;-80
2023/08/14 02:25:41;;;;;;;6.47;4.57;;;24.90;99.90;;;;;;5050999;28;20261;-75
2023/08/14 02:28:08;;;;;;;6.07;4.32;;;25.00;99.90;;;;;;5050101;28;20215;-76
2023/08/14 02:30:37;;;;;;;4.32;3.50;;;25.00;99.90;;;;;;5050429;28;20280;-76
2023/08/14 02:33:06;;;;;;;5.00;3.97;;;25.10;99.90;;;;;;5050146;28;20238;-76
2023/08/14 02:35:34;;;;;;;4.38;4.05;;;25.20;99.90;;;;;;5050317;28;20203;-76
2023/08/14 02:38:01;;;;;;;5.13;4.28;;;25.10;99.90;;;;;;5050170;28;20254;-76
2023/08/14 02:40:28;;;;;;;5.38;4.40;;;25.10;99.90;;;;;;5050419;28;20230;-76
2023/08/14 02:43:02;;;;;;;4.90;4.55;;;25.10;99.90;;;;;;5049898;28;20213;-76
2023/08/14 02:45:29;;;;;;;4.63;4.18;;;25.00;99.90;;;;;;5050303;28;20210;-75
2023/08/14 02:47:56;;;;;;;5.25;4.60;;;25.00;99.90;;;;;;5049932;28;20233;-75
2023/08/14 02:50:25;;;;;;;4.55;4.10;;;25.10;99.90;;;;;;5049990;28;20238;-75
2023/08/14 02:52:52;;;;;;;5.65;4.43;;;25.00;99.90;;;;;;5049829;28;20260;-75
2023/08/14 02:55:18;;;;;;;5.72;5.18;;;25.10;99.90;;;;;;5050268;28;20231;-75
2023/08/14 02:57:45;;;;;;;4.75;4.35;;;25.10;99.90;;;;;;5050159;28;20242;-75
2023/08/14 03:00:13;;;;;;;5.65;5.15;;;24.90;99.90;;;;;;5050712;28;20264;-75
2023/08/14 03:02:40;;;;;;;4.70;4.30;;;24.80;99.90;;;;;;5050610;28;20210;-76
2023/08/14 03:05:07;;;;;;;7.95;5.07;;;24.80;99.90;;;;;;5035864;28;20743;-75
2023/08/14 03:07:35;;;;;;;7.68;4.65;;;24.80;99.90;;;;;;5050260;28;20253;-75
2023/08/14 03:10:02;;;;;;;6.22;5.00;;;24.80;99.90;;;;;;5049787;28;20242;-75
2023/08/14 03:12:29;;;;;;;5.50;5.00;;;24.80;99.90;;;;;;5050002;28;20230;-76
2023/08/14 03:14:56;;;;;;;5.80;5.05;;;24.60;99.90;;;;;;5049581;28;20211;-76
2023/08/14 03:17:23;;;;;;;5.60;5.10;;;24.60;99.90;;;;;;5050331;28;20207;-76
2023/08/14 03:19:50;;;;;;;10.57;5.85;;;24.60;99.90;;;;;;5049438;28;20239;-75
2023/08/14 03:22:17;;;;;;;8.75;4.72;;;24.50;99.90;;;;;;5049930;28;20682;-74
2023/08/14 03:24:45;;;;;;;5.30;4.80;;;24.50;99.90;;;;;;5053242;28;20246;-74
2023/08/14 03:27:12;;;;;;;6.03;5.05;;;24.50;99.90;;;;;;5054103;28;20693;-74
2023/08/14 03:29:39;;;;;;;7.25;5.20;;;24.50;99.90;;;;;;5054489;28;20215;-77
2023/08/14 03:32:06;;;;;;;8.63;5.53;;;24.40;99.90;;;;;;5052921;28;20254;-77
2023/08/14 03:34:33;;;;;;;8.02;6.25;;;24.40;99.90;;;;;;5053554;28;20207;-77
2023/08/14 03:37:00;;;;;;;8.05;5.05;;;24.40;99.90;;;;;;5053218;28;20242;-78
2023/08/14 03:39:27;;;;;;;6.30;5.63;;;24.40;99.90;;;;;;5053527;28;20630;-74
2023/08/14 03:41:55;;;;;;;5.53;5.05;;;24.50;99.90;;;;;;5053139;28;20253;-75
2023/08/14 03:44:22;;;;;;;6.57;5.97;;;24.40;99.90;;;;;;5053775;28;20246;-75
2023/08/14 03:46:49;;;;;;;8.73;5.20;;;24.40;99.90;;;;;;5052893;28;20249;-74
2023/08/14 03:49:16;;;;;;;7.18;4.47;;;24.40;99.90;;;;;;5053220;28;20597;-75
2023/08/14 03:51:43;;;;;;;7.45;5.72;;;24.40;99.90;;;;;;5053458;28;20242;-77
2023/08/14 03:54:10;;;;;;;6.47;5.25;;;24.40;99.90;;;;;;5052929;28;20270;-82
2023/08/14 03:56:37;;;;;;;6.93;4.95;;;24.30;99.90;;;;;;5053446;28;20206;-77
2023/08/14 03:59:05;;;;;;;5.97;5.40;;;24.20;99.90;;;;;;5052607;28;20325;-77
2023/08/14 04:01:33;;;;;;;5.75;5.25;;;24.20;99.90;;;;;;5052779;28;20265;-78
2023/08/14 04:03:59;;;;;;;6.28;5.78;;;24.20;99.90;;;;;;5052676;28;20215;-77
2023/08/14 04:06:26;;;;;;;5.93;5.25;;;24.20;99.90;;;;;;5052788;28;20238;-79
2023/08/14 04:08:53;;;;;;;5.82;5.32;;;24.30;99.90;;;;;;5052821;28;20234;-77
2023/08/14 04:11:21;;;;;;;7.68;5.65;;;24.20;99.90;;;;;;5052982;28;20246;-77
2023/08/14 04:13:48;;;;;;;7.05;5.75;;;24.10;99.90;;;;;;5052483;28;20270;-74
2023/08/14 04:16:16;;;;;;;5.93;5.00;;;24.10;99.90;;;;;;5052677;28;20685;-74
2023/08/14 04:18:43;;;;;;;5.95;5.45;;;24.10;99.90;;;;;;5052667;28;20248;-72
2023/08/14 04:21:10;;;;;;;4.93;4.40;;;24.00;99.90;;;;;;5048437;28;20213;-72
2023/08/14 04:23:37;;;;;;;5.50;5.10;;;24.00;99.90;;;;;;5052662;28;20280;-73
2023/08/14 04:26:04;;;;;;;5.20;4.70;;;23.90;99.90;;;;;;5052142;28;20952;-73
2023/08/14 04:28:31;;;;;;;5.55;4.57;;;23.90;99.90;;;;;;5052687;28;20249;-76
2023/08/14 04:30:58;;;;;;;4.45;4.05;;;23.80;99.90;;;;;;5051644;28;20238;-71
2023/08/14 04:33:27;;;;;;;5.72;5.00;;;23.80;99.90;;;;;;5052375;28;20721;-74
2023/08/14 04:35:53;;;;;;;5.18;4.68;;;23.80;99.90;;;;;;5051137;28;20630;-72
2023/08/14 04:38:20;;;;;;;5.40;4.75;;;23.80;99.90;;;;;;5052091;28;20245;-74
2023/08/14 04:40:47;;;;;;;5.28;4.85;;;23.90;99.90;;;;;;5051711;28;20256;-72
2023/08/14 04:43:14;;;;;;;7.03;5.22;;;23.80;99.90;;;;;;5052403;28;20238;-74
2023/08/14 04:45:42;;;;;;;5.38;4.45;;;23.80;99.90;;;;;;5052506;28;20202;-72
2023/08/14 04:48:09;;;;;;;6.38;5.78;;;23.70;99.90;;;;;;5051565;28;20295;-73
2023/08/14 04:50:38;;;;;;;5.72;5.15;;;23.70;99.90;;;;;;5051935;28;20743;-72
2023/08/14 04:53:06;;;;;;;6.00;5.47;;;23.60;99.90;;;;;;5051317;28;20325;-74
2023/08/14 04:55:33;;;;;;;5.38;4.60;;;23.70;99.90;;;;;;5051918;28;20289;-72
2023/08/14 04:58:00;;;;;;;7.40;5.00;;;23.70;99.90;;;;;;5051529;28;20199;-71
2023/08/14 05:00:28;;;;;;;6.28;5.28;;;23.70;99.90;;;;;;5051217;28;20222;-71
2023/08/14 05:02:55;;;;;;;5.90;4.80;;;23.70;99.90;;;;;;5051405;28;20332;-73
2023/08/14 05:05:22;;;;;;;6.38;4.70;;;23.70;99.90;;;;;;5051747;28;20246;-73
2023/08/14 05:07:50;;;;;;;8.02;4.97;;;23.70;99.90;;;;;;5051182;28;20562;-74
2023/08/14 05:10:17;;;;;;;6.10;5.45;;;23.70;99.90;;;;;;5051698;28;20268;-73
2023/08/14 05:12:44;;;;;;;5.25;4.75;;;23.70;99.90;;;;;;5051911;28;22118;-73
2023/08/14 05:15:12;;;;;;;4.40;3.97;;;23.70;99.90;;;;;;5051013;28;20249;-73
2023/08/14 05:17:39;;;;;;;6.25;5.65;;;23.70;99.90;;;;;;5051925;28;20218;-73
2023/08/14 05:20:07;;;;;;;5.30;4.82;;;23.80;99.90;;;;;;5051320;28;20234;-73
2023/08/14 05:22:34;;;;;;;4.85;4.35;;;23.80;99.90;;;;;;5051423;28;20580;-75
2023/08/14 05:25:03;;;;;;;5.28;4.70;;;23.90;99.90;;;;;;5051146;28;20203;-76
2023/08/14 05:27:36;;;;;;;5.57;4.40;;;23.80;99.90;;;;;;5051202;28;20207;-75
2023/08/14 05:30:04;;;;;;;5.40;4.90;;;23.80;99.90;;;;;;5041362;28;20195;-75
2023/08/14 05:32:30;;;;;;;5.10;4.70;;;23.90;99.90;;;;;;5050982;28;20571;-75
2023/08/14 05:34:57;;;;;;;4.72;4.25;;;23.90;99.90;;;;;;5050898;28;20239;-75
2023/08/14 05:37:24;;;;;;;4.70;4.30;;;23.90;99.90;;;;;;5051087;28;20238;-75
2023/08/14 05:39:51;;;;;;;6.13;4.93;;;23.90;99.90;;;;;;5050739;28;20242;-76
2023/08/14 05:42:21;;;;;;;6.22;5.38;;;23.80;99.90;;;;;;5051162;28;20207;-75
2023/08/14 05:44:48;;;;;;;5.95;5.28;;;23.80;99.90;;;;;;5050790;28;20293;-76
2023/08/14 05:47:15;;;;;;;6.43;4.68;;;23.90;99.90;;;;;;5050911;28;20242;-75
2023/08/14 05:49:42;;;;;;;4.82;4.38;;;23.90;99.90;;;;;;5051216;28;20238;-74
2023/08/14 05:52:09;;;;;;;5.72;5.10;;;23.90;99.90;;;;;;5043853;28;20713;-73
2023/08/14 05:54:36;;;;;;;5.43;4.57;;;23.90;99.90;;;;;;5050169;28;20659;-73
2023/08/14 05:57:03;;;;;;;4.28;3.97;;;23.90;99.90;;;;;;5050052;28;20612;-73
2023/08/14 05:59:32;;;;;;;4.70;4.30;;;24.00;99.90;;;;;;5048038;28;20207;-74
2023/08/14 06:01:59;;;;;;;5.13;4.50;;;24.00;99.90;;;;;;5048534;28;20210;-72
2023/08/14 06:04:26;;;;;;;4.82;4.43;;;24.10;99.90;;;;;;5050207;28;20242;-73
2023/08/14 06:06:53;;;;;;;4.72;4.32;;;23.80;99.90;;;;;;5048448;28;20238;-71
2023/08/14 06:09:20;;;;;;;4.32;3.97;;;23.90;99.90;;;;;;5050229;28;20292;-71
2023/08/14 06:11:47;;;;;;;4.82;4.22;;;23.80;99.90;;;;;;5048708;28;20235;-70
2023/08/14 06:14:14;;;;;;;5.47;3.95;;;23.90;99.90;;;;;;5050832;28;20751;-70
2023/08/14 06:16:42;;;;;;;6.20;4.78;;;24.00;99.90;;;;;;5050940;28;20230;-72
2023/08/14 06:19:09;;;;;;;5.32;4.40;;;23.90;99.90;;;;;;5050630;28;20555;-71
2023/08/14 06:21:36;;;;;;;5.10;4.15;;;24.00;99.90;;;;;;5050592;28;20203;-72
2023/08/14 06:24:03;;;;;;;4.95;4.55;;;24.10;99.90;;;;;;5050145;28;20238;-72
2023/08/14 06:26:30;;;;;;;7.75;4.07;;;24.20;99.90;;;;;;5050041;28;20246;-71
2023/08/14 06:28:57;;;;;;;6.68;4.55;;;24.50;99.90;;;;;;5049860;28;20242;-72
2023/08/14 06:31:24;;;;;;;6.15;5.18;;;24.60;99.90;;;;;;5050659;28;20686;-71
2023/08/14 06:33:52;;;;;;;4.63;4.18;;;24.80;99.90;;;;;;5049797;28;20269;-71
2023/08/14 06:36:19;;;;;;;5.20;4.63;;;24.70;99.90;;;;;;5048838;28;20258;-69
2023/08/14 06:38:46;;;;;;;5.18;4.13;;;24.80;99.90;;;;;;5050156;28;20234;-71
2023/08/14 06:41:13;;;;;;;5.15;4.68;;;24.80;99.90;;;;;;5050620;28;20256;-71
2023/08/14 06:43:40;;;;;;;4.38;3.95;;;24.60;99.90;;;;;;5045940;28;20237;-69
2023/08/14 06:46:07;;;;;;;5.32;4.22;;;24.90;99.90;;;;;;5049714;28;20296;-68
2023/08/14 06:48:33;;;;;;;6.35;4.82;;;24.80;99.90;;;;;;5050045;28;20242;-70
2023/08/14 06:51:02;;;;;;;8.32;5.10;;;25.00;99.90;;;;;;5049694;28;20234;-70
2023/08/14 06:53:29;;;;;;;5.13;3.95;;;25.10;99.90;;;;;;5040183;28;20271;-70
2023/08/14 06:55:56;;;;;;;6.63;4.53;;;25.10;99.90;;;;;;5044788;28;20260;-71
2023/08/14 06:58:23;;;;;;;7.63;4.95;;;25.40;99.90;;;;;;5043262;28;20289;-68
2023/08/14 07:00:50;;;;;;;4.65;4.25;;;25.40;99.90;;;;;;5053800;28;20227;-72
2023/08/14 07:03:17;;;;;;;4.85;3.85;;;25.40;99.90;;;;;;5051970;28;20325;-71
2023/08/14 07:05:44;;;;;;;6.25;3.92;;;25.40;99.90;;;;;;5053699;28;20237;-72
2023/08/14 07:08:12;;;;;;;6.28;4.63;;;25.20;99.90;;;;;;5053280;28;20241;-71
2023/08/14 07:10:39;;;;;;;5.47;4.13;;;25.20;99.90;;;;;;5052297;28;20210;-71
2023/08/14 07:13:07;;;;;;;4.55;4.25;;;25.40;99.90;;;;;;5051463;28;20211;-73
2023/08/14 07:15:34;;;;;;;4.18;3.78;;;25.70;99.90;;;;;;5052226;28;20300;-72
2023/08/14 07:18:00;;;;;;;5.63;4.53;;;25.50;99.90;;;;;;5051568;28;20265;-71
2023/08/14 07:20:27;;;;;;;6.60;4.05;;;25.60;99.90;;;;;;5052241;28;20245;-73
2023/08/14 07:22:55;;;;;;;4.40;3.97;;;25.60;99.90;;;;;;5051406;28;20238;-71
2023/08/14 07:25:24;;;;;;;5.00;4.50;;;25.70;99.90;;;;;;5053528;28;20633;-72
2023/08/14 07:27:51;;;;;;;4.60;4.30;;;25.70;99.90;;;;;;5052994;28;20199;-72
2023/08/14 07:30:18;;;;;;;5.07;4.55;;;25.60;99.90;;;;;;5053607;28;20207;-73
2023/08/14 07:32:45;;;;;;;5.80;4.95;;;25.70;99.90;;;;;;5053438;28;20215;-73
2023/08/14 07:35:12;;;;;;;5.55;4.50;;;25.90;99.90;;;;;;5054085;28;20261;-72
2023/08/14 07:37:39;;;;;;;4.90;4.40;;;26.10;99.90;;;;;;5053901;28;20585;-76
2023/08/14 07:40:07;;;;;;;5.05;4.50;;;26.00;99.90;;;;;;5052155;28;20238;-72
2023/08/14 07:42:35;;;;;;;4.97;4.53;;;26.10;99.90;;;;;;5053099;28;20407;-72
2023/08/14 07:45:02;;;;;;;6.13;4.38;;;26.40;99.90;;;;;;5052732;28;20207;-72
2023/08/14 07:47:29;;;;;;;4.75;4.00;;;26.80;99.90;;;;;;5052741;28;20640;-72
2023/08/14 07:49:56;;;;;;;6.13;4.38;;;26.80;99.90;;;;;;5052557;28;20242;-73
2023/08/14 07:52:24;;;;;;;5.22;4.82;;;26.80;99.90;;;;;;5052918;28;20242;-72
2023/08/14 07:54:51;;;;;;;5.85;4.15;;;26.40;99.90;;;;;;5046603;28;20258;-73
2023/08/14 07:57:18;;;;;;;5.35;4.85;;;26.70;99.90;;;;;;5051603;28;20234;-73
2023/08/14 07:59:46;;;;;;;5.00;4.50;;;27.10;99.90;;;;;;5050615;28;20207;-72
2023/08/14 08:02:13;;;;;;;5.18;4.65;;;27.30;99.90;;;;;;5053592;28;20234;-72
2023/08/14 08:04:40;;;;;;;5.13;3.72;;;27.30;99.90;;;;;;5052764;28;20779;-71
2023/08/14 08:07:07;;;;;;;4.88;3.67;;;27.20;99.90;;;;;;5052118;28;20275;-72
2023/08/14 08:09:34;;;;;;;8.65;5.50;;;27.00;99.90;;;;;;5052010;28;20211;-71
2023/08/14 08:12:01;;;;;;;4.80;4.25;;;27.00;99.90;;;;;;5052290;28;20241;-72
2023/08/14 08:14:28;;;;;;;8.90;4.47;;;27.20;99.90;;;;;;5051579;28;20611;-76
2023/08/14 08:16:56;;;;;;;6.05;4.68;;;27.40;99.90;;;;;;5044048;28;20312;-73
2023/08/14 08:19:23;;;;;;;5.15;4.15;;;27.50;99.90;;;;;;5052843;28;20242;-73
2023/08/14 08:21:50;;;;;;;5.43;3.83;;;27.70;99.90;;;;;;5051975;28;20202;-73
2023/08/14 08:24:17;;;;;;;5.78;4.07;;;27.90;99.90;;;;;;5052460;28;20207;-73
2023/08/14 08:26:44;;;;;;;5.82;4.30;;;27.90;99.90;;;;;;5052068;28;20256;-74
2023/08/14 08:29:11;;;;;;;8.85;4.03;;;27.70;99.90;;;;;;5051787;28;20211;-77
2023/08/14 08:31:38;;;;;;;5.50;3.90;;;27.90;99.90;;;;;;5047956;28;20242;-78
2023/08/14 08:34:06;;;;;;;9.07;4.47;;;27.90;99.90;;;;;;5051442;28;20235;-77
2023/08/14 08:36:33;;;;;;;8.32;3.95;;;28.20;99.90;;;;;;5052109;28;20199;-78
2023/08/14 08:39:00;;;;;;;5.78;4.63;;;28.00;99.90;;;;;;5050758;28;20211;-79
2023/08/14 08:41:31;;;;;;;4.13;3.70;;;28.00;99.90;;;;;;5051601;28;20590;-73
2023/08/14 08:44:05;;;;;;;3.75;3.15;;;28.00;99.90;;;;;;5045947;28;20207;-78
2023/08/14 08:46:35;;;;;;;9.57;3.95;;;28.30;99.90;;;;;;5045056;28;20288;-75
2023/08/14 08:49:04;;;;;;;5.63;3.17;;;28.40;99.90;;;;;;5046819;28;20299;-76
2023/08/14 08:51:34;;;;;;;5.07;4.45;;;28.50;99.90;;;;;;5051528;28;20229;-76
2023/08/14 08:54:02;;;;;;;4.10;3.80;;;28.70;99.90;;;;;;5051153;28;20592;-80
2023/08/14 08:56:28;;;;;;;5.95;3.38;;;28.60;99.90;;;;;;5051672;28;20235;-76
2023/08/14 08:58:56;;;;;;;6.80;4.03;;;28.60;99.90;;;;;;5051477;28;20231;-76
2023/08/14 09:01:23;;;;;;;4.57;4.00;;;28.40;99.90;;;;;;5051552;28;20235;-74
2023/08/14 09:03:50;;;;;;;5.82;4.05;;;28.50;99.90;;;;;;5050756;28;20712;-77
2023/08/14 09:06:17;;;;;;;4.13;3.75;;;28.40;99.90;;;;;;5051591;28;20284;-77
2023/08/14 09:08:45;;;;;;;5.82;3.20;;;28.50;99.90;;;;;;5052078;28;20203;-78
2023/08/14 09:11:12;;;;;;;5.22;3.78;;;28.30;99.90;;;;;;5051750;28;20647;-79
2023/08/14 09:13:39;;;;;;;3.70;3.03;;;28.90;99.90;;;;;;5052016;28;20203;-77
2023/08/14 09:16:06;;;;;;;8.90;3.65;;;29.60;99.90;;;;;;5051123;28;20238;-75
2023/08/14 09:18:33;;;;;;;4.35;3.63;;;29.60;99.90;;;;;;5050101;28;20203;-77
2023/08/14 09:21:03;;;;;;;6.78;3.70;;;29.90;99.90;;;;;;5050097;28;20683;-77
2023/08/14 09:23:34;;;;;;;4.88;4.20;;;30.20;99.90;;;;;;5046513;28;20735;-76
2023/08/14 09:26:03;;;;;;;6.53;3.63;;;29.90;99.90;;;;;;5049577;28;20219;-72
2023/08/14 09:28:31;;;;;;;5.82;3.63;;;29.10;99.90;;;;;;5051113;28;20280;-76
2023/08/14 09:31:06;;;;;;;5.00;3.63;;;28.80;99.90;;;;;;5051015;28;20290;-73
2023/08/14 09:33:33;;;;;;;6.68;3.88;;;28.70;99.90;;;;;;5044528;28;20220;-78
2023/08/14 09:36:00;;;;;;;4.90;3.72;;;28.70;99.90;;;;;;5049307;28;20231;-81
2023/08/14 09:38:27;;;;;;;5.80;3.40;;;29.50;99.90;;;;;;5048208;28;20269;-79
2023/08/14 09:40:57;;;;;;;6.80;4.28;;;30.30;99.90;;;;;;5050179;28;20239;-78
2023/08/14 09:43:25;;;;;;;4.55;4.03;;;29.90;99.90;;;;;;5050885;28;20282;-76
2023/08/14 09:45:53;;;;;;;4.35;3.80;;;31.10;99.90;;;;;;5048164;28;20210;-77
2023/08/14 09:48:20;;;;;;;4.15;3.83;;;33.10;99.90;;;;;;5050612;28;20206;-76
2023/08/14 09:50:49;;;;;;;6.50;3.70;;;32.00;99.90;;;;;;5049201;28;20685;-76
2023/08/14 09:53:16;;;;;;;4.43;3.30;;;30.30;99.90;;;;;;5043380;28;20288;-75
2023/08/14 09:55:43;;;;;;;3.97;3.58;;;32.90;99.90;;;;;;5047177;28;20261;-76
2023/08/14 09:58:11;;;;;;;5.20;3.83;;;32.30;99.90;;;;;;5050240;28;20635;-76
2023/08/14 10:00:39;;;;;;;4.05;3.35;;;31.50;99.90;;;;;;5050726;28;20209;-76
2023/08/14 10:03:09;;;;;;;5.43;3.72;;;30.30;99.90;;;;;;5049893;28;20237;-76
2023/08/14 10:05:37;;;;;;;6.10;3.78;;;31.00;99.90;;;;;;5049530;28;20213;-78
2023/08/14 10:08:08;;;;;;;7.60;3.40;;;31.10;99.90;;;;;;5046456;28;20210;-79
2023/08/14 10:10:37;;;;;;;7.70;4.03;;;30.80;99.90;;;;;;5049766;28;20248;-78
2023/08/14 10:13:09;;;;;;;6.22;3.80;;;32.90;99.90;;;;;;5049853;28;20245;-77
2023/08/14 10:15:41;;;;;;;5.72;3.33;;;35.10;99.90;;;;;;5050677;28;20668;-77
2023/08/14 10:18:13;;;;;;;6.45;3.55;;;36.30;99.90;;;;;;5050296;28;20293;-79
2023/08/14 10:20:42;;;;;;;4.57;3.70;;;34.80;99.90;;;;;;5050845;28;20600;-76
2023/08/14 10:23:09;;;;;;;5.20;3.95;;;34.30;99.90;;;;;;5050360;28;20260;-79
2023/08/14 10:25:37;;;;;;;5.15;4.15;;;34.10;99.90;;;;;;5050403;28;20742;-81
2023/08/14 10:28:07;;;;;;;8.38;3.90;;;33.10;99.90;;;;;;5050343;28;20233;-79
2023/08/14 10:30:35;;;;;;;5.50;3.85;;;31.80;99.90;;;;;;5050080;28;20238;-76
2023/08/14 10:33:05;;;;;;;5.05;3.95;;;31.20;99.90;;;;;;5048866;28;20297;-79
2023/08/14 10:35:45;;;;;;;6.03;4.15;;;30.50;99.90;;;;;;5050292;28;20233;-80
2023/08/14 10:38:14;;;;;;;4.13;3.65;;;30.20;99.90;;;;;;5050549;28;20293;-78
2023/08/14 10:40:52;;;;;;;8.93;4.30;;;30.30;99.90;;;;;;5050531;28;20237;-79
2023/08/14 10:43:23;;;;;;;5.88;3.42;;;30.30;99.90;;;;;;5049336;28;20202;-77
2023/08/14 10:45:52;;;;;;;7.18;3.83;;;30.50;99.90;;;;;;5047309;28;20237;-77
2023/08/14 10:48:22;;;;;;;4.80;4.03;;;30.00;99.90;;;;;;5046425;28;20206;-75
2023/08/14 10:50:49;;;;;;;5.15;3.15;;;30.20;99.90;;;;;;5049750;28;20237;-75
2023/08/14 10:53:17;;;;;;;5.43;3.70;;;29.90;99.90;;;;;;5045547;28;20242;-79
2023/08/14 10:55:46;;;;;;;7.63;4.70;;;30.20;99.90;;;;;;5046167;28;20326;-77
2023/08/14 10:58:38;;;;;;;3.72;3.35;;;30.10;99.90;;;;;;5050500;28;20206;-79
2023/08/14 11:01:06;;;;;;;6.88;3.88;;;30.40;99.90;;;;;;5038496;28;20296;-78
2023/08/14 11:03:54;;;;;;;4.38;3.80;;;30.40;99.90;;;;;;5049466;28;20318;-79
2023/08/14 11:06:23;;;;;;;10.82;4.75;;;30.40;99.90;;;;;;5048074;28;20287;-80
2023/08/14 11:08:56;;;;;;;4.70;4.25;;;30.60;99.90;;;;;;5049700;28;20208;-79
2023/08/14 11:11:23;;;;;;;18.25;11.65;;;30.60;99.90;;;;;;5049072;28;20241;-78
2023/08/14 11:13:52;;;;;;;7.20;4.25;;;30.50;99.90;;;;;;5050610;28;20202;-77
2023/08/14 11:16:20;;;;;;;8.38;3.83;;;30.40;99.90;;;;;;5049670;28;20266;-76
2023/08/14 11:18:48;;;;;;;4.25;3.85;;;30.60;99.90;;;;;;5047854;28;20280;-77
2023/08/14 11:21:15;;;;;;;7.78;4.20;;;30.80;99.90;;;;;;5049870;28;20238;-78
2023/08/14 11:23:42;;;;;;;9.18;6.20;;;30.70;99.90;;;;;;5050399;28;20234;-78
2023/08/14 11:26:10;;;;;;;6.80;5.22;;;30.70;99.90;;;;;;5047261;28;20693;-76
2023/08/14 11:28:36;;;;;;;5.18;3.95;;;30.90;99.90;;;;;;5046677;28;20214;-74
2023/08/14 11:31:03;;;;;;;5.28;3.95;;;30.80;99.90;;;;;;5041502;28;20234;-76
2023/08/14 11:33:32;;;;;;;6.35;4.03;;;31.10;99.90;;;;;;5045721;28;20215;-75
2023/08/14 11:36:00;;;;;;;4.75;3.20;;;31.10;99.90;;;;;;5048051;28;20234;-76
2023/08/14 11:38:27;;;;;;;7.85;4.00;;;30.90;99.90;;;;;;5047541;28;20645;-75
2023/08/14 11:40:54;;;;;;;4.68;4.20;;;31.20;99.90;;;;;;5048753;28;20241;-75
2023/08/14 11:43:21;;;;;;;3.63;3.33;;;31.30;99.90;;;;;;5047659;28;20242;-76
2023/08/14 11:45:49;;;;;;;4.63;3.72;;;31.30;99.90;;;;;;5050942;28;20633;-75
2023/08/14 11:48:16;;;;;;;5.32;3.55;;;31.30;99.90;;;;;;5042680;28;20268;-75
2023/08/14 11:50:47;;;;;;;8.85;4.68;;;31.40;99.90;;;;;;5051542;28;20242;-77
2023/08/14 11:53:16;;;;;;;4.70;3.42;;;31.20;99.90;;;;;;5051630;28;20707;-75
2023/08/14 11:55:44;;;;;;;4.47;3.53;;;31.40;99.90;;;;;;5052664;28;20265;-76
2023/08/14 11:58:13;;;;;;;7.53;4.20;;;31.40;99.90;;;;;;5052441;28;20238;-76
2023/08/14 12:00:41;;;;;;;5.68;3.50;;;31.30;99.90;;;;;;5052991;28;20245;-75
2023/08/14 12:03:07;;;;;;;6.07;3.60;;;31.30;99.90;;;;;;5052821;28;20221;-75
2023/08/14 12:05:34;;;;;;;4.63;3.78;;;31.00;99.90;;;;;;5053149;28;20299;-76
2023/08/14 12:08:02;;;;;;;5.20;3.22;;;31.00;99.90;;;;;;5052713;28;20244;-75
2023/08/14 12:10:33;;;;;;;6.60;3.85;;;31.00;99.90;;;;;;5053311;28;20276;-76
2023/08/14 12:13:00;;;;;;;5.07;4.40;;;31.30;99.90;;;;;;5051856;28;20642;-76
2023/08/14 12:15:27;;;;;;;4.43;3.83;;;31.50;99.90;;;;;;5052886;28;20262;-76
2023/08/14 12:17:54;;;;;;;6.40;3.88;;;31.50;99.90;;;;;;5052596;28;20206;-74
2023/08/14 12:20:22;;;;;;;4.15;3.67;;;31.70;99.90;;;;;;5052915;28;20234;-75
2023/08/14 12:22:49;;;;;;;5.97;3.92;;;31.30;99.90;;;;;;5052539;28;20668;-75
2023/08/14 12:25:19;;;;;;;4.93;4.03;;;31.40;99.90;;;;;;5052789;28;20237;-76
2023/08/14 12:27:47;;;;;;;5.20;4.07;;;31.60;99.90;;;;;;5053089;28;20210;-75
2023/08/14 12:30:14;;;;;;;6.05;3.95;;;31.60;99.90;;;;;;5052492;28;20240;-75
2023/08/14 12:32:47;;;;;;;5.65;3.60;;;31.60;99.90;;;;;;5052956;28;20250;-76
2023/08/14 12:35:14;;;;;;;6.55;4.38;;;31.60;99.90;;;;;;5052552;28;20226;-76
2023/08/14 12:37:40;;;;;;;5.47;4.40;;;31.80;99.90;;;;;;5053036;28;20203;-75
2023/08/14 12:40:10;;;;;;;3.78;3.47;;;31.90;99.90;;;;;;5052220;28;20236;-75
2023/08/14 12:42:37;;;;;;;5.07;3.90;;;31.60;99.90;;;;;;5052722;28;20289;-74
2023/08/14 12:45:07;;;;;;;4.70;4.22;;;31.80;99.90;;;;;;5051694;28;20206;-76
2023/08/14 12:47:34;;;;;;;6.22;3.95;;;31.60;99.90;;;;;;5052175;28;20238;-75
2023/08/14 12:50:01;;;;;;;5.28;3.40;;;31.40;99.90;;;;;;5052308;28;20206;-75